PWSweather.com
Personal Weather Stations
Station Observations
KMAMEDFI2
Medfield, MA 02052

Medfield, MA 02052

Lat: 42.1900822, Lon: -71.3296889

Elevation: 138

Station Type: Rainwise WS MK-III

http://www.medfieldweather.com

High Low Average
Temperature 53.4°F11.9°C 40.9°F4.9°C 46.9°F8.3°C
Dew Point 46.2°F7.9°C 30.9°F-0.6°C 38.4°F3.6°C
Winds 16.1 mph 25.9 kmh Calm Calm 6.0 mph WSW9.7 kmh WSW
Wind Gusts 27.6 mph44.4 kmh -- 10.0 mph16.1 kmh
Humidity 97% 49% 74%
Pressure 29.82 in1009.8 mb 29.20 in988.8 mb -
Precipitation 0.88 in22.4 mm - -
Hour Temp Dew Point Humidity Winds Wind Gusts Pressure Precip Precip Rate Daily Precip Total
12:00 AM 45.8°F7.7°C 45.0°F7.2°C 97% 1.2 mph WSW1.9 kmh WSW 2.3 mph3.7 kmh 29.38 in994.9 mb - 0.54 in13.7 mm 0.54 in13.7 mm
12:10 AM 45.7°F7.6°C 44.9°F7.2°C 97% 2.3 mph NNW3.7 kmh NNW 5.8 mph9.3 kmh 29.38 in994.9 mb - 0.42 in10.7 mm 0.55 in14.0 mm
12:20 AM 45.6°F7.6°C 44.8°F7.1°C 97% 2.3 mph W3.7 kmh W 2.3 mph3.7 kmh 29.36 in994.2 mb - 0.39 in9.9 mm 0.56 in14.2 mm
12:30 AM 45.5°F7.5°C 44.7°F7.1°C 97% Calm Calm -- 29.35 in993.9 mb - 0.28 in7.1 mm 0.57 in14.5 mm
12:40 AM 45.4°F7.4°C 44.6°F7.0°C 97% 1.2 mph SW1.9 kmh SW 2.3 mph3.7 kmh 29.34 in993.6 mb - 0.13 in3.3 mm 0.59 in15.0 mm
12:50 AM 45.3°F7.4°C 44.5°F6.9°C 97% Calm Calm -- 29.31 in992.6 mb - 0.10 in2.5 mm 0.61 in15.5 mm
01:00 AM 45.3°F7.4°C 44.5°F6.9°C 97% 1.2 mph WSW1.9 kmh WSW 2.3 mph3.7 kmh 29.31 in992.6 mb - 0.17 in4.3 mm 0.71 in18.0 mm
01:10 AM 45.2°F7.3°C 44.4°F6.9°C 97% 2.3 mph SE3.7 kmh SE 2.3 mph3.7 kmh 29.31 in992.6 mb - 0.19 in4.8 mm 0.74 in18.8 mm
01:20 AM 45.1°F7.3°C 44.3°F6.8°C 97% 3.5 mph N5.6 kmh N 2.3 mph3.7 kmh 29.29 in991.9 mb - 0.21 in5.3 mm 0.77 in19.6 mm
01:30 AM 45.1°F7.3°C 44.3°F6.8°C 97% 2.3 mph S3.7 kmh S 2.3 mph3.7 kmh 29.28 in991.5 mb - 0.22 in5.6 mm 0.79 in20.1 mm
01:40 AM 45.1°F7.3°C 44.3°F6.8°C 97% 2.3 mph E3.7 kmh E 2.3 mph3.7 kmh 29.26 in990.9 mb - 0.22 in5.6 mm 0.81 in20.6 mm
01:50 AM 45.1°F7.3°C 44.3°F6.8°C 97% 2.3 mph N3.7 kmh N 2.3 mph3.7 kmh 29.25 in990.5 mb - 0.21 in5.3 mm 0.82 in20.8 mm
02:00 AM 45.1°F7.3°C 44.3°F6.8°C 97% 3.5 mph NW5.6 kmh NW 5.8 mph9.3 kmh 29.25 in990.5 mb - 0.11 in2.8 mm 0.82 in20.8 mm
02:10 AM 45.0°F7.2°C 44.2°F6.8°C 97% 2.3 mph NNE3.7 kmh NNE 3.5 mph5.6 kmh 29.24 in990.2 mb - 0.08 in2.0 mm 0.82 in20.8 mm
02:20 AM 45.1°F7.3°C 44.3°F6.8°C 97% 3.5 mph WSW5.6 kmh WSW 2.3 mph3.7 kmh 29.24 in990.2 mb - 0.06 in1.5 mm 0.82 in20.8 mm
02:30 AM 44.9°F7.2°C 43.9°F6.6°C 96% 1.2 mph NE1.9 kmh NE 1.2 mph1.9 kmh 29.23 in989.8 mb - 0.03 in0.8 mm 0.82 in20.8 mm
02:40 AM 44.8°F7.1°C 43.8°F6.6°C 96% 2.3 mph E3.7 kmh E 1.2 mph1.9 kmh 29.21 in989.2 mb - 0.01 in0.3 mm 0.82 in20.8 mm
02:50 AM 44.8°F7.1°C 43.7°F6.5°C 96% 1.2 mph S1.9 kmh S 2.3 mph3.7 kmh 29.21 in989.2 mb - 0.01 in0.3 mm 0.83 in21.1 mm
03:00 AM 44.9°F7.2°C 43.8°F6.6°C 96% Calm Calm 2.3 mph3.7 kmh 29.22 in989.5 mb - 0.01 in0.3 mm 0.83 in21.1 mm
03:10 AM 44.9°F7.2°C 43.8°F6.6°C 96% 1.2 mph SW1.9 kmh SW 2.3 mph3.7 kmh 29.21 in989.2 mb - 0.01 in0.3 mm 0.83 in21.1 mm
03:20 AM 44.8°F7.1°C 43.7°F6.5°C 96% Calm Calm -- 29.20 in988.8 mb - 0.01 in0.3 mm 0.83 in21.1 mm
03:30 AM 44.8°F7.1°C 43.7°F6.5°C 96% 2.3 mph NW3.7 kmh NW 2.3 mph3.7 kmh 29.21 in989.2 mb - 0.02 in0.5 mm 0.84 in21.3 mm
03:40 AM 44.9°F7.2°C 43.8°F6.6°C 96% 5.8 mph WNW9.3 kmh WNW 8.1 mph13.0 kmh 29.22 in989.5 mb - 0.03 in0.8 mm 0.85 in21.6 mm
03:50 AM 44.5°F6.9°C 43.4°F6.3°C 96% 8.1 mph WNW13.0 kmh WNW 15.0 mph24.1 kmh 29.24 in990.2 mb - 0.04 in1.0 mm 0.87 in22.1 mm
04:00 AM 43.9°F6.6°C 42.8°F6.0°C 96% 4.6 mph WSW7.4 kmh WSW 10.4 mph16.7 kmh 29.25 in990.5 mb - 0.05 in1.3 mm 0.88 in22.4 mm
04:10 AM 43.8°F6.6°C 42.7°F5.9°C 96% 2.3 mph WSW3.7 kmh WSW 8.1 mph13.0 kmh 29.25 in990.5 mb - 0.05 in1.3 mm 0.88 in22.4 mm
04:20 AM 43.8°F6.6°C 42.7°F5.9°C 96% 3.5 mph W5.6 kmh W 5.8 mph9.3 kmh 29.25 in990.5 mb - 0.05 in1.3 mm 0.88 in22.4 mm
04:30 AM 43.9°F6.6°C 42.8°F6.0°C 96% 3.5 mph W5.6 kmh W 2.3 mph3.7 kmh 29.25 in990.5 mb - 0.04 in1.0 mm 0.88 in22.4 mm
04:40 AM 43.9°F6.6°C 42.8°F6.0°C 96% 4.6 mph SW7.4 kmh SW 5.8 mph9.3 kmh 29.24 in990.2 mb - 0.03 in0.8 mm 0.88 in22.4 mm
04:50 AM 44.2°F6.8°C 43.1°F6.2°C 96% 2.3 mph WNW3.7 kmh WNW 2.3 mph3.7 kmh 29.27 in991.2 mb - 0.01 in0.3 mm 0.88 in22.4 mm
05:00 AM 44.2°F6.8°C 43.1°F6.2°C 96% 3.5 mph SW5.6 kmh SW 2.3 mph3.7 kmh 29.26 in990.9 mb - 0.00 in0.0 mm 0.88 in22.4 mm
05:10 AM 44.4°F6.9°C 43.3°F6.3°C 96% 2.3 mph W3.7 kmh W 2.3 mph3.7 kmh 29.28 in991.5 mb - 0.00 in0.0 mm 0.88 in22.4 mm
05:20 AM 44.5°F6.9°C 43.4°F6.3°C 96% 2.3 mph WSW3.7 kmh WSW 2.3 mph3.7 kmh 29.28 in991.5 mb - 0.00 in0.0 mm 0.88 in22.4 mm
05:30 AM 44.7°F7.1°C 43.6°F6.4°C 96% 2.3 mph SW3.7 kmh SW 3.5 mph5.6 kmh 29.27 in991.2 mb - 0.00 in0.0 mm 0.88 in22.4 mm
05:40 AM 44.9°F7.2°C 43.8°F6.6°C 96% 4.6 mph WSW7.4 kmh WSW 11.5 mph18.5 kmh 29.28 in991.5 mb - 0.00 in0.0 mm 0.88 in22.4 mm
05:50 AM 45.3°F7.4°C 44.5°F6.9°C 97% 3.5 mph SW5.6 kmh SW 3.5 mph5.6 kmh 29.28 in991.5 mb - 0.00 in0.0 mm 0.88 in22.4 mm
06:00 AM 45.6°F7.6°C 44.8°F7.1°C 97% 3.5 mph SW5.6 kmh SW 8.1 mph13.0 kmh 29.29 in991.9 mb - 0.00 in0.0 mm 0.88 in22.4 mm
06:10 AM 45.9°F7.7°C 45.1°F7.3°C 97% 3.5 mph NW5.6 kmh NW 3.5 mph5.6 kmh 29.29 in991.9 mb - 0.00 in0.0 mm 0.88 in22.4 mm
06:20 AM 46.3°F7.9°C 45.5°F7.5°C 97% 4.6 mph W7.4 kmh W 8.1 mph13.0 kmh 29.30 in992.2 mb - 0.00 in0.0 mm 0.88 in22.4 mm
06:30 AM 46.6°F8.1°C 45.8°F7.7°C 97% 5.8 mph W9.3 kmh W 11.5 mph18.5 kmh 29.32 in992.9 mb - 0.00 in0.0 mm 0.88 in22.4 mm
06:40 AM 46.8°F8.2°C 46.0°F7.8°C 97% 9.2 mph WSW14.8 kmh WSW 10.4 mph16.7 kmh 29.33 in993.2 mb - 0.00 in0.0 mm 0.88 in22.4 mm
06:50 AM 47.0°F8.3°C 46.2°F7.9°C 97% 5.8 mph WNW9.3 kmh WNW 15.0 mph24.1 kmh 29.34 in993.6 mb - 0.00 in0.0 mm 0.88 in22.4 mm
07:00 AM 47.1°F8.4°C 45.7°F7.6°C 95% 3.5 mph WNW5.6 kmh WNW 3.5 mph5.6 kmh 29.35 in993.9 mb - 0.00 in0.0 mm 0.88 in22.4 mm
07:10 AM 47.1°F8.4°C 45.4°F7.4°C 94% 9.2 mph W14.8 kmh W 11.5 mph18.5 kmh 29.36 in994.2 mb - 0.00 in0.0 mm 0.88 in22.4 mm
07:20 AM 47.3°F8.5°C 44.2°F6.8°C 89% 9.2 mph WSW14.8 kmh WSW 11.5 mph18.5 kmh 29.36 in994.2 mb - 0.00 in0.0 mm 0.88 in22.4 mm
07:30 AM 47.9°F8.8°C 44.5°F6.9°C 88% 8.1 mph WSW13.0 kmh WSW 11.5 mph18.5 kmh 29.36 in994.2 mb - 0.00 in0.0 mm 0.88 in22.4 mm
07:40 AM 48.2°F9.0°C 44.2°F6.8°C 86% 6.9 mph SW11.1 kmh SW 16.1 mph25.9 kmh 29.38 in994.9 mb - 0.00 in0.0 mm 0.88 in22.4 mm
07:50 AM 48.1°F8.9°C 43.8°F6.6°C 85% 6.9 mph WSW11.1 kmh WSW 23.0 mph37.0 kmh 29.38 in994.9 mb - 0.00 in0.0 mm 0.88 in22.4 mm
08:00 AM 48.0°F8.9°C 42.4°F5.8°C 81% 9.2 mph WSW14.8 kmh WSW 11.5 mph18.5 kmh 29.39 in995.3 mb - 0.00 in0.0 mm 0.88 in22.4 mm
08:10 AM 47.9°F8.8°C 43.3°F6.3°C 84% 5.8 mph W9.3 kmh W 6.9 mph11.1 kmh 29.40 in995.6 mb - 0.00 in0.0 mm 0.88 in22.4 mm
08:20 AM 47.8°F8.8°C 43.5°F6.4°C 85% 5.8 mph W9.3 kmh W 8.1 mph13.0 kmh 29.40 in995.6 mb - 0.00 in0.0 mm 0.88 in22.4 mm
08:30 AM 47.7°F8.7°C 42.8°F6.0°C 83% 8.1 mph WSW13.0 kmh WSW 23.0 mph37.0 kmh 29.40 in995.6 mb - 0.00 in0.0 mm 0.88 in22.4 mm
08:40 AM 47.7°F8.7°C 42.2°F5.7°C 81% 8.1 mph SW13.0 kmh SW 10.4 mph16.7 kmh 29.41 in995.9 mb - 0.00 in0.0 mm 0.88 in22.4 mm
08:50 AM 48.4°F9.1°C 42.2°F5.7°C 79% 5.8 mph W9.3 kmh W 6.9 mph11.1 kmh 29.42 in996.3 mb - 0.00 in0.0 mm 0.88 in22.4 mm
09:00 AM 49.5°F9.7°C 43.3°F6.3°C 79% 5.8 mph SW9.3 kmh SW 10.4 mph16.7 kmh 29.42 in996.3 mb - 0.00 in0.0 mm 0.88 in22.4 mm
09:10 AM 51.1°F10.6°C 41.7°F5.4°C 70% 9.2 mph NW14.8 kmh NW 11.5 mph18.5 kmh 29.43 in996.6 mb - 0.00 in0.0 mm 0.88 in22.4 mm
09:20 AM 51.2°F10.7°C 41.7°F5.4°C 70% 9.2 mph W14.8 kmh W 15.0 mph24.1 kmh 29.44 in997.0 mb - 0.00 in0.0 mm 0.88 in22.4 mm
09:30 AM 50.4°F10.2°C 41.3°F5.2°C 71% 10.4 mph WSW16.7 kmh WSW 11.5 mph18.5 kmh 29.45 in997.3 mb - 0.00 in0.0 mm 0.88 in22.4 mm
09:40 AM 48.4°F9.1°C 41.5°F5.3°C 77% 10.4 mph WSW16.7 kmh WSW 13.8 mph22.2 kmh 29.47 in998.0 mb - 0.00 in0.0 mm 0.88 in22.4 mm
09:50 AM 48.0°F8.9°C 39.0°F3.9°C 71% 5.8 mph W9.3 kmh W 5.8 mph9.3 kmh 29.47 in998.0 mb - 0.00 in0.0 mm 0.88 in22.4 mm
10:00 AM 49.7°F9.8°C 40.6°F4.8°C 71% 4.6 mph WNW7.4 kmh WNW 10.4 mph16.7 kmh 29.47 in998.0 mb - 0.00 in0.0 mm 0.88 in22.4 mm
10:10 AM 51.1°F10.6°C 41.3°F5.2°C 69% 6.9 mph W11.1 kmh W 8.1 mph13.0 kmh 29.47 in998.0 mb - 0.00 in0.0 mm 0.88 in22.4 mm
10:20 AM 50.6°F10.3°C 41.2°F5.1°C 70% 8.1 mph WSW13.0 kmh WSW 15.0 mph24.1 kmh 29.48 in998.3 mb - 0.00 in0.0 mm 0.88 in22.4 mm
10:30 AM 48.8°F9.3°C 40.6°F4.8°C 73% 8.1 mph WSW13.0 kmh WSW 15.0 mph24.1 kmh 29.48 in998.3 mb - 0.00 in0.0 mm 0.88 in22.4 mm
10:40 AM 49.8°F9.9°C 40.8°F4.9°C 71% 8.1 mph WSW13.0 kmh WSW 13.8 mph22.2 kmh 29.48 in998.3 mb - 0.00 in0.0 mm 0.88 in22.4 mm
10:50 AM 51.2°F10.7°C 41.0°F5.0°C 68% 5.8 mph NW9.3 kmh NW 9.2 mph14.8 kmh 29.47 in998.0 mb - 0.00 in0.0 mm 0.88 in22.4 mm
11:00 AM 53.4°F11.9°C 40.7°F4.8°C 62% 6.9 mph NW11.1 kmh NW 16.1 mph25.9 kmh 29.48 in998.3 mb - 0.00 in0.0 mm 0.88 in22.4 mm
11:10 AM 52.9°F11.6°C 39.8°F4.3°C 61% 10.4 mph NW16.7 kmh NW 18.4 mph29.6 kmh 29.48 in998.3 mb - 0.00 in0.0 mm 0.88 in22.4 mm
11:20 AM 52.7°F11.5°C 39.6°F4.2°C 61% 5.8 mph W9.3 kmh W 8.1 mph13.0 kmh 29.48 in998.3 mb - 0.00 in0.0 mm 0.88 in22.4 mm
11:30 AM 53.3°F11.8°C 36.6°F2.6°C 53% 11.5 mph W18.5 kmh W 21.9 mph35.2 kmh 29.48 in998.3 mb - 0.00 in0.0 mm 0.88 in22.4 mm
11:40 AM 52.0°F11.1°C 34.9°F1.6°C 52% 12.7 mph W20.4 kmh W 16.1 mph25.9 kmh 29.48 in998.3 mb - 0.00 in0.0 mm 0.88 in22.4 mm
11:50 AM 51.9°F11.1°C 33.3°F0.7°C 49% 8.1 mph WSW13.0 kmh WSW 16.1 mph25.9 kmh 29.49 in998.6 mb - 0.00 in0.0 mm 0.88 in22.4 mm
12:00 PM 52.3°F11.3°C 34.7°F1.5°C 51% 6.9 mph WSW11.1 kmh WSW 15.0 mph24.1 kmh 29.48 in998.3 mb - 0.00 in0.0 mm 0.88 in22.4 mm
12:10 PM 51.5°F10.8°C 34.4°F1.3°C 52% 10.4 mph WSW16.7 kmh WSW 17.3 mph27.8 kmh 29.49 in998.6 mb - 0.00 in0.0 mm 0.88 in22.4 mm
12:20 PM 50.9°F10.5°C 35.3°F1.8°C 55% 6.9 mph W11.1 kmh W 18.4 mph29.6 kmh 29.50 in999.0 mb - 0.00 in0.0 mm 0.88 in22.4 mm
12:30 PM 50.6°F10.3°C 35.5°F1.9°C 56% 6.9 mph WSW11.1 kmh WSW 8.1 mph13.0 kmh 29.50 in999.0 mb - 0.00 in0.0 mm 0.88 in22.4 mm
12:40 PM 50.9°F10.5°C 35.3°F1.8°C 55% 8.1 mph WSW13.0 kmh WSW 8.1 mph13.0 kmh 29.50 in999.0 mb - 0.00 in0.0 mm 0.88 in22.4 mm
12:50 PM 51.5°F10.8°C 35.9°F2.2°C 55% 3.5 mph NW5.6 kmh NW 8.1 mph13.0 kmh 29.50 in999.0 mb - 0.00 in0.0 mm 0.88 in22.4 mm
01:00 PM 51.8°F11.0°C 34.7°F1.5°C 52% 11.5 mph WSW18.5 kmh WSW 19.6 mph31.5 kmh 29.50 in999.0 mb - 0.00 in0.0 mm 0.88 in22.4 mm
01:10 PM 51.9°F11.1°C 35.3°F1.8°C 53% 11.5 mph W18.5 kmh W 16.1 mph25.9 kmh 29.51 in999.3 mb - 0.00 in0.0 mm 0.88 in22.4 mm
01:20 PM 52.6°F11.4°C 36.8°F2.7°C 55% 4.6 mph WSW7.4 kmh WSW 2.3 mph3.7 kmh 29.51 in999.3 mb - 0.00 in0.0 mm 0.88 in22.4 mm
01:30 PM 52.4°F11.3°C 37.2°F2.9°C 56% 2.3 mph NE3.7 kmh NE 8.1 mph13.0 kmh 29.51 in999.3 mb - 0.00 in0.0 mm 0.88 in22.4 mm
01:40 PM 51.9°F11.1°C 34.9°F1.6°C 52% 4.6 mph WSW7.4 kmh WSW 10.4 mph16.7 kmh 29.52 in999.7 mb - 0.00 in0.0 mm 0.88 in22.4 mm
01:50 PM 51.2°F10.7°C 34.6°F1.4°C 53% 4.6 mph WNW7.4 kmh WNW 18.4 mph29.6 kmh 29.52 in999.7 mb - 0.00 in0.0 mm 0.88 in22.4 mm
02:00 PM 50.8°F10.4°C 35.2°F1.8°C 55% 5.8 mph WNW9.3 kmh WNW 9.2 mph14.8 kmh 29.52 in999.7 mb - 0.00 in0.0 mm 0.88 in22.4 mm
02:10 PM 50.5°F10.3°C 35.8°F2.1°C 57% 8.1 mph W13.0 kmh W 15.0 mph24.1 kmh 29.53 in1000.0 mb - 0.00 in0.0 mm 0.88 in22.4 mm
02:20 PM 50.7°F10.4°C 36.5°F2.5°C 58% 9.2 mph WSW14.8 kmh WSW 15.0 mph24.1 kmh 29.54 in1000.3 mb - 0.00 in0.0 mm 0.88 in22.4 mm
02:30 PM 52.3°F11.3°C 36.1°F2.3°C 54% 8.1 mph WNW13.0 kmh WNW 15.0 mph24.1 kmh 29.53 in1000.0 mb - 0.00 in0.0 mm 0.88 in22.4 mm
02:40 PM 52.5°F11.4°C 34.3°F1.3°C 50% 8.1 mph W13.0 kmh W 19.6 mph31.5 kmh 29.54 in1000.3 mb - 0.00 in0.0 mm 0.88 in22.4 mm
02:50 PM 51.9°F11.1°C 35.3°F1.8°C 53% 10.4 mph SW16.7 kmh SW 11.5 mph18.5 kmh 29.54 in1000.3 mb - 0.00 in0.0 mm 0.88 in22.4 mm
03:00 PM 51.4°F10.8°C 35.7°F2.1°C 55% 8.1 mph W13.0 kmh W 8.1 mph13.0 kmh 29.54 in1000.3 mb - 0.00 in0.0 mm 0.88 in22.4 mm
03:10 PM 50.3°F10.2°C 36.9°F2.7°C 60% 9.2 mph W14.8 kmh W 15.0 mph24.1 kmh 29.55 in1000.7 mb - 0.00 in0.0 mm 0.88 in22.4 mm
03:20 PM 50.9°F10.5°C 37.5°F3.1°C 60% 4.6 mph SW7.4 kmh SW 9.2 mph14.8 kmh 29.56 in1001.0 mb - 0.00 in0.0 mm 0.88 in22.4 mm
03:30 PM 51.3°F10.7°C 35.2°F1.8°C 54% 13.8 mph WSW22.2 kmh WSW 18.4 mph29.6 kmh 29.57 in1001.4 mb - 0.00 in0.0 mm 0.88 in22.4 mm
03:40 PM 51.5°F10.8°C 35.4°F1.9°C 54% 12.7 mph NW20.4 kmh NW 27.6 mph44.4 kmh 29.57 in1001.4 mb - 0.00 in0.0 mm 0.88 in22.4 mm
03:50 PM 51.6°F10.9°C 34.0°F1.1°C 51% 9.2 mph WNW14.8 kmh WNW 25.3 mph40.7 kmh 29.57 in1001.4 mb - 0.00 in0.0 mm 0.88 in22.4 mm
04:00 PM 51.3°F10.7°C 33.8°F1.0°C 51% 10.4 mph W16.7 kmh W 23.0 mph37.0 kmh 29.58 in1001.7 mb - 0.00 in0.0 mm 0.88 in22.4 mm
04:10 PM 50.3°F10.2°C 33.3°F0.7°C 52% 16.1 mph WSW25.9 kmh WSW 16.1 mph25.9 kmh 29.59 in1002.0 mb - 0.00 in0.0 mm 0.88 in22.4 mm
04:20 PM 49.9°F9.9°C 34.3°F1.3°C 55% 6.9 mph W11.1 kmh W 9.2 mph14.8 kmh 29.59 in1002.0 mb - 0.00 in0.0 mm 0.88 in22.4 mm
04:30 PM 49.5°F9.7°C 32.6°F0.3°C 52% 4.6 mph WSW7.4 kmh WSW 11.5 mph18.5 kmh 29.60 in1002.4 mb - 0.00 in0.0 mm 0.88 in22.4 mm
04:40 PM 48.9°F9.4°C 32.9°F0.5°C 54% 8.1 mph WNW13.0 kmh WNW 15.0 mph24.1 kmh 29.61 in1002.7 mb - 0.00 in0.0 mm 0.88 in22.4 mm
04:50 PM 48.6°F9.2°C 33.1°F0.6°C 55% 8.1 mph WSW13.0 kmh WSW 16.1 mph25.9 kmh 29.61 in1002.7 mb - 0.00 in0.0 mm 0.88 in22.4 mm
05:00 PM 48.3°F9.1°C 32.8°F0.4°C 55% 9.2 mph WSW14.8 kmh WSW 16.1 mph25.9 kmh 29.62 in1003.0 mb - 0.00 in0.0 mm 0.88 in22.4 mm
05:10 PM 47.6°F8.7°C 32.3°F0.2°C 55% 10.4 mph WSW16.7 kmh WSW 17.3 mph27.8 kmh 29.63 in1003.4 mb - 0.00 in0.0 mm 0.88 in22.4 mm
05:20 PM 47.0°F8.3°C 32.1°F0.1°C 56% 9.2 mph W14.8 kmh W 11.5 mph18.5 kmh 29.64 in1003.7 mb - 0.00 in0.0 mm 0.88 in22.4 mm
05:30 PM 46.7°F8.2°C 32.7°F0.4°C 58% 4.6 mph WSW7.4 kmh WSW 8.1 mph13.0 kmh 29.64 in1003.7 mb - 0.00 in0.0 mm 0.88 in22.4 mm
05:40 PM 46.4°F8.0°C 32.0°F0.0°C 57% 9.2 mph SW14.8 kmh SW 15.0 mph24.1 kmh 29.65 in1004.1 mb - 0.00 in0.0 mm 0.88 in22.4 mm
05:50 PM 46.0°F7.8°C 31.2°F-0.4°C 56% 11.5 mph WSW18.5 kmh WSW 23.0 mph37.0 kmh 29.66 in1004.4 mb - 0.00 in0.0 mm 0.88 in22.4 mm
06:00 PM 45.8°F7.7°C 31.4°F-0.3°C 57% 9.2 mph WSW14.8 kmh WSW 15.0 mph24.1 kmh 29.66 in1004.4 mb - 0.00 in0.0 mm 0.88 in22.4 mm
06:10 PM 45.7°F7.6°C 31.8°F-0.1°C 58% 4.6 mph NW7.4 kmh NW 5.8 mph9.3 kmh 29.66 in1004.4 mb - 0.00 in0.0 mm 0.88 in22.4 mm
06:20 PM 45.5°F7.5°C 31.6°F-0.2°C 58% 4.6 mph S7.4 kmh S 15.0 mph24.1 kmh 29.67 in1004.7 mb - 0.00 in0.0 mm 0.88 in22.4 mm
06:30 PM 45.2°F7.3°C 31.3°F-0.4°C 58% 6.9 mph WSW11.1 kmh WSW 13.8 mph22.2 kmh 29.67 in1004.7 mb - 0.00 in0.0 mm 0.88 in22.4 mm
06:40 PM 44.8°F7.1°C 31.3°F-0.4°C 59% 2.3 mph W3.7 kmh W 3.5 mph5.6 kmh 29.68 in1005.1 mb - 0.00 in0.0 mm 0.88 in22.4 mm
06:50 PM 44.7°F7.1°C 31.2°F-0.4°C 59% 4.6 mph WSW7.4 kmh WSW 5.8 mph9.3 kmh 29.68 in1005.1 mb - 0.00 in0.0 mm 0.88 in22.4 mm
07:00 PM 44.9°F7.2°C 31.0°F-0.6°C 58% 5.8 mph SW9.3 kmh SW 3.5 mph5.6 kmh 29.69 in1005.4 mb - 0.00 in0.0 mm 0.88 in22.4 mm
07:10 PM 44.8°F7.1°C 30.9°F-0.6°C 58% 10.4 mph WSW16.7 kmh WSW 13.8 mph22.2 kmh 29.70 in1005.8 mb - 0.00 in0.0 mm 0.88 in22.4 mm
07:20 PM 44.7°F7.1°C 32.1°F0.1°C 61% 3.5 mph WNW5.6 kmh WNW 9.2 mph14.8 kmh 29.70 in1005.8 mb - 0.00 in0.0 mm 0.88 in22.4 mm
07:30 PM 44.6°F7.0°C 31.1°F-0.5°C 59% 6.9 mph W11.1 kmh W 11.5 mph18.5 kmh 29.72 in1006.4 mb - 0.00 in0.0 mm 0.88 in22.4 mm
07:40 PM 44.5°F6.9°C 31.9°F-0.1°C 61% 8.1 mph WSW13.0 kmh WSW 21.9 mph35.2 kmh 29.72 in1006.4 mb - 0.00 in0.0 mm 0.88 in22.4 mm
07:50 PM 44.3°F6.8°C 32.1°F0.1°C 62% 4.6 mph NW7.4 kmh NW 9.2 mph14.8 kmh 29.73 in1006.8 mb - 0.00 in0.0 mm 0.88 in22.4 mm
08:00 PM 44.1°F6.7°C 31.5°F-0.3°C 61% 8.1 mph SW13.0 kmh SW 16.1 mph25.9 kmh 29.74 in1007.1 mb - 0.00 in0.0 mm 0.88 in22.4 mm
08:10 PM 43.9°F6.6°C 32.1°F0.1°C 63% 5.8 mph WSW9.3 kmh WSW 8.1 mph13.0 kmh 29.75 in1007.5 mb - 0.00 in0.0 mm 0.88 in22.4 mm
08:20 PM 43.8°F6.6°C 32.0°F0.0°C 63% 9.2 mph W14.8 kmh W 16.1 mph25.9 kmh 29.76 in1007.8 mb - 0.00 in0.0 mm 0.88 in22.4 mm
08:30 PM 43.7°F6.5°C 32.7°F0.4°C 65% 6.9 mph NW11.1 kmh NW 9.2 mph14.8 kmh 29.76 in1007.8 mb - 0.00 in0.0 mm 0.88 in22.4 mm
08:40 PM 43.6°F6.4°C 32.6°F0.3°C 65% 5.8 mph WSW9.3 kmh WSW 8.1 mph13.0 kmh 29.76 in1007.8 mb - 0.00 in0.0 mm 0.88 in22.4 mm
08:50 PM 43.4°F6.3°C 33.2°F0.7°C 67% 8.1 mph WSW13.0 kmh WSW 13.8 mph22.2 kmh 29.76 in1007.8 mb - 0.00 in0.0 mm 0.88 in22.4 mm
09:00 PM 43.3°F6.3°C 33.1°F0.6°C 67% 6.9 mph WSW11.1 kmh WSW 8.1 mph13.0 kmh 29.77 in1008.1 mb - 0.00 in0.0 mm 0.88 in22.4 mm
09:10 PM 43.2°F6.2°C 33.7°F0.9°C 69% 8.1 mph WNW13.0 kmh WNW 15.0 mph24.1 kmh 29.78 in1008.5 mb - 0.00 in0.0 mm 0.88 in22.4 mm
09:20 PM 42.9°F6.1°C 33.8°F1.0°C 70% 4.6 mph SW7.4 kmh SW 9.2 mph14.8 kmh 29.77 in1008.1 mb - 0.00 in0.0 mm 0.88 in22.4 mm
09:30 PM 42.8°F6.0°C 33.7°F0.9°C 70% 5.8 mph W9.3 kmh W 9.2 mph14.8 kmh 29.78 in1008.5 mb - 0.00 in0.0 mm 0.88 in22.4 mm
09:40 PM 42.8°F6.0°C 34.0°F1.1°C 71% 5.8 mph W9.3 kmh W 8.1 mph13.0 kmh 29.78 in1008.5 mb - 0.00 in0.0 mm 0.88 in22.4 mm
09:50 PM 42.8°F6.0°C 34.0°F1.1°C 71% 4.6 mph W7.4 kmh W 13.8 mph22.2 kmh 29.78 in1008.5 mb - 0.00 in0.0 mm 0.88 in22.4 mm
10:00 PM 42.8°F6.0°C 34.4°F1.3°C 72% 6.9 mph SW11.1 kmh SW 9.2 mph14.8 kmh 29.79 in1008.8 mb - 0.00 in0.0 mm 0.88 in22.4 mm
10:10 PM 42.8°F6.0°C 34.4°F1.3°C 72% 4.6 mph WSW7.4 kmh WSW 8.1 mph13.0 kmh 29.79 in1008.8 mb - 0.00 in0.0 mm 0.88 in22.4 mm
10:20 PM 42.6°F5.9°C 34.5°F1.4°C 73% 5.8 mph WSW9.3 kmh WSW 11.5 mph18.5 kmh 29.78 in1008.5 mb - 0.00 in0.0 mm 0.88 in22.4 mm
10:30 PM 42.5°F5.8°C 34.5°F1.4°C 73% 3.5 mph WSW5.6 kmh WSW 5.8 mph9.3 kmh 29.79 in1008.8 mb - 0.00 in0.0 mm 0.88 in22.4 mm
10:40 PM 41.9°F5.5°C 34.6°F1.4°C 75% 3.5 mph W5.6 kmh W 5.8 mph9.3 kmh 29.79 in1008.8 mb - 0.00 in0.0 mm 0.88 in22.4 mm
10:50 PM 41.8°F5.4°C 34.8°F1.6°C 76% 3.5 mph W5.6 kmh W 8.1 mph13.0 kmh 29.79 in1008.8 mb - 0.00 in0.0 mm 0.88 in22.4 mm
11:00 PM 41.6°F5.3°C 34.6°F1.4°C 76% 5.8 mph WSW9.3 kmh WSW 6.9 mph11.1 kmh 29.80 in1009.1 mb - 0.00 in0.0 mm 3.73 in94.7 mm
11:10 PM 41.6°F5.3°C 34.9°F1.6°C 77% 9.2 mph SW14.8 kmh SW 15.0 mph24.1 kmh 29.80 in1009.1 mb - 0.00 in0.0 mm 3.73 in94.7 mm
11:20 PM 41.4°F5.2°C 35.1°F1.7°C 78% 4.6 mph W7.4 kmh W 8.1 mph13.0 kmh 29.81 in1009.5 mb - 0.00 in0.0 mm 3.73 in94.7 mm
11:30 PM 41.2°F5.1°C 34.9°F1.6°C 78% 4.6 mph WSW7.4 kmh WSW 5.8 mph9.3 kmh 29.81 in1009.5 mb - 0.00 in0.0 mm 3.73 in94.7 mm
11:40 PM 41.2°F5.1°C 34.9°F1.6°C 78% 3.5 mph WSW5.6 kmh WSW 2.3 mph3.7 kmh 29.82 in1009.8 mb - 0.00 in0.0 mm 3.73 in94.7 mm
11:50 PM 40.9°F4.9°C 35.2°F1.8°C 80% 3.5 mph WSW5.6 kmh WSW 8.1 mph13.0 kmh 29.81 in1009.5 mb - 0.00 in0.0 mm 3.73 in94.7 mm